createdAt,value
2022-09-16T00:00:23.285Z,46.67
2022-09-16T00:01:23.343Z,46.88
2022-09-16T00:02:23.350Z,49.46
2022-09-16T00:03:23.258Z,47.37
2022-09-16T00:04:23.258Z,46.98
2022-09-16T00:05:23.281Z,48.04
2022-09-16T00:06:23.243Z,48.03
2022-09-16T00:07:23.233Z,46.94
2022-09-16T00:08:23.221Z,46.91
2022-09-16T00:09:23.216Z,47.69
2022-09-16T00:10:23.229Z,47.29
2022-09-16T00:11:23.214Z,47.27
2022-09-16T00:12:23.212Z,46.83
2022-09-16T00:13:23.226Z,47.68
2022-09-16T00:14:23.205Z,47.24
2022-09-16T00:15:23.203Z,47.52
2022-09-16T00:16:23.209Z,47.03
2022-09-16T00:17:23.183Z,48.06
2022-09-16T00:18:23.148Z,47.31
2022-09-16T00:19:23.191Z,47.16
2022-09-16T00:20:23.130Z,46.93
2022-09-16T00:21:23.153Z,47.56
2022-09-16T00:22:23.121Z,46.82
2022-09-16T00:23:23.118Z,46.73
2022-09-16T00:24:23.091Z,46.80
2022-09-16T00:25:23.096Z,46.75
2022-09-16T00:26:23.118Z,46.72
2022-09-16T00:27:23.104Z,49.71
2022-09-16T00:28:23.057Z,47.65
2022-09-16T00:29:23.056Z,46.84
2022-09-16T00:30:23.060Z,46.76
2022-09-16T00:31:23.098Z,46.70
2022-09-16T00:32:23.041Z,47.11
2022-09-16T00:33:23.028Z,46.66
2022-09-16T00:34:23.019Z,46.68
2022-09-16T00:35:23.008Z,46.71
2022-09-16T00:36:23.051Z,46.65
2022-09-16T00:37:23.017Z,46.63
2022-09-16T00:38:22.995Z,46.65
2022-09-16T00:39:22.973Z,47.08
2022-09-16T00:40:23.016Z,46.84
2022-09-16T00:41:23.024Z,47.64
2022-09-16T00:42:23.016Z,46.70
2022-09-16T00:43:22.946Z,46.83
2022-09-16T00:44:22.948Z,50.04
2022-09-16T00:45:22.943Z,47.32
2022-09-16T00:46:22.967Z,46.97
2022-09-16T00:47:22.958Z,47.58
2022-09-16T00:48:22.949Z,47.43
2022-09-16T00:49:22.901Z,47.40
2022-09-16T00:50:22.913Z,50.85
2022-09-16T00:51:22.887Z,47.41
2022-09-16T00:52:22.910Z,47.55
2022-09-16T00:53:22.867Z,48.69
2022-09-16T00:54:22.898Z,47.01
2022-09-16T00:55:22.871Z,47.02
2022-09-16T00:56:22.842Z,47.01
2022-09-16T00:57:22.852Z,46.96
2022-09-16T00:58:22.828Z,48.14
2022-09-16T00:59:22.950Z,47.62
2022-09-16T01:00:22.817Z,47.12
2022-09-16T01:01:22.842Z,47.04
2022-09-16T01:02:22.867Z,47.03
2022-09-16T01:03:22.793Z,47.02
2022-09-16T01:04:22.853Z,47.06
2022-09-16T01:05:22.788Z,47.06
2022-09-16T01:06:22.747Z,47.04
2022-09-16T01:07:22.765Z,47.86
2022-09-16T01:08:22.742Z,47.08
2022-09-16T01:09:22.858Z,47.30
2022-09-16T01:10:22.741Z,47.88
2022-09-16T01:11:22.719Z,48.28
2022-09-16T01:12:22.716Z,47.13
2022-09-16T01:13:22.713Z,48.77
2022-09-16T01:14:22.799Z,48.31
2022-09-16T01:15:22.691Z,47.74
2022-09-16T01:16:22.765Z,47.25
2022-09-16T01:17:22.689Z,47.09
2022-09-16T01:18:22.683Z,47.04
2022-09-16T01:19:22.686Z,47.13
2022-09-16T01:20:22.674Z,48.27
2022-09-16T01:21:22.665Z,47.03
2022-09-16T01:22:22.671Z,48.20
2022-09-16T01:23:22.701Z,47.73
2022-09-16T01:24:22.622Z,47.65
2022-09-16T01:25:22.640Z,48.93
2022-09-16T01:26:22.646Z,49.70
2022-09-16T01:27:22.634Z,47.16
2022-09-16T01:28:22.648Z,47.13
2022-09-16T01:29:22.601Z,47.11
2022-09-16T01:30:22.587Z,49.45
2022-09-16T01:31:22.643Z,48.38
2022-09-16T01:32:22.581Z,50.34
2022-09-16T01:33:22.600Z,48.64
2022-09-16T01:34:22.566Z,48.27
2022-09-16T01:35:22.552Z,48.61
2022-09-16T01:36:22.564Z,47.27
2022-09-16T01:37:22.516Z,47.15
2022-09-16T01:38:22.520Z,47.34
2022-09-16T01:39:22.593Z,47.30
2022-09-16T01:40:22.670Z,50.36
2022-09-16T01:41:22.580Z,47.38
2022-09-16T01:42:22.474Z,47.66
2022-09-16T01:43:22.571Z,47.76
2022-09-16T01:44:22.451Z,47.83
2022-09-16T01:45:22.479Z,48.46
2022-09-16T01:46:22.580Z,48.56
2022-09-16T01:47:22.482Z,48.00
2022-09-16T01:48:22.447Z,47.61
2022-09-16T01:49:22.459Z,47.89
2022-09-16T01:50:22.420Z,48.19
2022-09-16T01:51:22.458Z,48.08
2022-09-16T01:52:22.424Z,47.94
2022-09-16T01:53:22.381Z,49.21
2022-09-16T01:54:22.381Z,47.61
2022-09-16T01:55:22.390Z,48.13
2022-09-16T01:56:22.397Z,47.77
2022-09-16T01:57:22.368Z,47.35
2022-09-16T01:58:22.401Z,48.03
2022-09-16T01:59:22.370Z,48.88
2022-09-16T02:00:22.335Z,47.66
2022-09-16T02:01:22.328Z,47.62
2022-09-16T02:02:22.443Z,48.10
2022-09-16T02:03:22.407Z,47.40
2022-09-16T02:04:22.302Z,49.45
2022-09-16T02:05:22.301Z,48.13
2022-09-16T02:06:22.308Z,48.57
2022-09-16T02:07:22.291Z,50.76
2022-09-16T02:08:22.303Z,49.05
2022-09-16T02:09:22.278Z,49.05
2022-09-16T02:10:22.303Z,47.34
2022-09-16T02:11:22.292Z,48.78
2022-09-16T02:12:22.247Z,47.74
2022-09-16T02:13:22.221Z,48.30
2022-09-16T02:14:22.253Z,47.75
2022-09-16T02:15:22.289Z,47.35
2022-09-16T02:16:22.246Z,47.25
2022-09-16T02:17:22.198Z,47.54
2022-09-16T02:18:22.218Z,47.33
2022-09-16T02:19:22.235Z,47.36
2022-09-16T02:20:22.198Z,47.36
2022-09-16T02:21:22.199Z,47.52
2022-09-16T02:22:22.204Z,49.12
2022-09-16T02:23:22.161Z,49.12
2022-09-16T02:24:22.236Z,48.32
2022-09-16T02:25:22.127Z,47.57
2022-09-16T02:26:23.115Z,48.58
2022-09-16T02:27:22.158Z,47.78
2022-09-16T02:28:22.165Z,48.48
2022-09-16T02:29:22.154Z,48.92
2022-09-16T02:30:22.149Z,47.97
2022-09-16T02:31:22.176Z,49.89
2022-09-16T02:32:22.108Z,48.44
2022-09-16T02:33:22.077Z,49.37
2022-09-16T02:34:22.186Z,48.36
2022-09-16T02:35:22.070Z,47.69
2022-09-16T02:36:22.061Z,49.27
2022-09-16T02:37:22.105Z,48.77
2022-09-16T02:38:22.034Z,48.10
2022-09-16T02:39:22.031Z,47.68
2022-09-16T02:40:22.058Z,49.71
2022-09-16T02:41:22.023Z,49.26
2022-09-16T02:42:22.059Z,49.36
2022-09-16T02:43:22.032Z,49.03
2022-09-16T02:44:21.990Z,48.51
2022-09-16T02:45:22.064Z,49.19
2022-09-16T02:46:22.067Z,48.58
2022-09-16T02:47:21.989Z,49.51
2022-09-16T02:48:21.999Z,47.81
2022-09-16T02:49:21.951Z,49.23
2022-09-16T02:50:21.972Z,47.52
2022-09-16T02:51:21.940Z,48.77
2022-09-16T02:52:21.932Z,49.65
2022-09-16T02:53:21.974Z,50.61
2022-09-16T02:54:21.935Z,47.82
2022-09-16T02:55:21.927Z,48.43
2022-09-16T02:56:21.892Z,49.63
2022-09-16T02:57:21.906Z,48.59
2022-09-16T02:58:21.913Z,48.88
2022-09-16T02:59:21.894Z,48.27
2022-09-16T03:00:21.864Z,49.09
2022-09-16T03:01:21.889Z,48.82
2022-09-16T03:02:21.909Z,47.91
2022-09-16T03:03:21.882Z,52.17
2022-09-16T03:04:21.867Z,48.59
2022-09-16T03:05:21.840Z,49.26
2022-09-16T03:06:21.822Z,48.92
2022-09-16T03:07:21.844Z,49.43
2022-09-16T03:08:21.810Z,49.62
2022-09-16T03:09:21.881Z,47.86
2022-09-16T03:10:21.790Z,49.65
2022-09-16T03:11:21.777Z,48.65
2022-09-16T03:12:21.789Z,48.76
2022-09-16T03:13:21.784Z,49.68
2022-09-16T03:14:21.838Z,51.51
2022-09-16T03:15:21.751Z,49.84
2022-09-16T03:16:21.822Z,50.11
2022-09-16T03:17:21.748Z,51.01
2022-09-16T03:18:21.733Z,48.11
2022-09-16T03:19:21.786Z,51.04
2022-09-16T03:20:21.745Z,51.36
2022-09-16T03:21:21.753Z,49.35
2022-09-16T03:22:21.702Z,51.99
2022-09-16T03:23:21.718Z,48.59
2022-09-16T03:24:21.712Z,49.57
2022-09-16T03:25:21.729Z,49.36
2022-09-16T03:26:21.685Z,51.03
2022-09-16T03:27:21.668Z,50.68
2022-09-16T03:28:21.695Z,51.85
2022-09-16T03:29:21.630Z,51.44
2022-09-16T03:30:21.693Z,51.44
2022-09-16T03:31:21.723Z,49.97
2022-09-16T03:32:21.624Z,50.95
2022-09-16T03:33:21.669Z,52.02
2022-09-16T03:34:21.628Z,55.02
2022-09-16T03:35:21.607Z,52.83
2022-09-16T03:36:21.629Z,50.68
2022-09-16T03:37:21.639Z,51.40
2022-09-16T03:38:21.586Z,52.35
2022-09-16T03:39:21.581Z,52.42
2022-09-16T03:40:21.578Z,49.79
2022-09-16T03:41:21.544Z,49.00
2022-09-16T03:42:21.578Z,50.65
2022-09-16T03:43:21.545Z,50.74
2022-09-16T03:44:21.525Z,50.66
2022-09-16T03:45:21.542Z,50.17
2022-09-16T03:46:21.577Z,52.96
2022-09-16T03:47:21.587Z,48.79
2022-09-16T03:48:21.515Z,52.09
2022-09-16T03:49:21.550Z,53.56
2022-09-16T03:50:21.484Z,47.71
2022-09-16T03:51:21.486Z,49.81
2022-09-16T03:52:21.480Z,49.51
2022-09-16T03:53:21.474Z,49.46
2022-09-16T03:54:21.512Z,52.44
2022-09-16T03:55:21.490Z,49.96
2022-09-16T03:56:21.460Z,51.53
2022-09-16T03:57:21.422Z,51.30
2022-09-16T03:58:21.493Z,49.40
2022-09-16T03:59:21.472Z,50.32
2022-09-16T04:00:21.443Z,52.32
2022-09-16T04:01:21.534Z,49.35
2022-09-16T04:02:21.425Z,49.08
2022-09-16T04:03:21.429Z,50.21
2022-09-16T04:04:21.467Z,50.30
2022-09-16T04:05:21.425Z,51.00
2022-09-16T04:06:21.394Z,51.80
2022-09-16T04:07:21.371Z,52.01
2022-09-16T04:08:21.417Z,50.79
2022-09-16T04:09:21.362Z,51.14
2022-09-16T04:10:21.364Z,53.72
2022-09-16T04:11:21.404Z,52.42
2022-09-16T04:12:21.352Z,52.21
2022-09-16T04:13:21.336Z,52.56
2022-09-16T04:14:21.345Z,51.97
2022-09-16T04:15:21.379Z,52.71
2022-09-16T04:16:21.473Z,50.36
2022-09-16T04:17:21.309Z,50.94
2022-09-16T04:18:21.302Z,50.99
2022-09-16T04:19:21.342Z,53.73
2022-09-16T04:20:21.276Z,51.34
2022-09-16T04:21:21.311Z,54.13
2022-09-16T04:22:21.278Z,53.64
2022-09-16T04:23:21.278Z,51.84
2022-09-16T04:24:21.273Z,50.87
2022-09-16T04:25:21.287Z,52.23
2022-09-16T04:26:21.411Z,55.15
2022-09-16T04:27:21.241Z,53.87
2022-09-16T04:28:21.256Z,53.59
2022-09-16T04:29:21.247Z,54.58
2022-09-16T04:30:21.235Z,53.93
2022-09-16T04:31:21.262Z,54.13
2022-09-16T04:32:21.206Z,51.51
2022-09-16T04:33:21.219Z,52.07
2022-09-16T04:34:21.240Z,54.29
2022-09-16T04:35:21.196Z,52.93
2022-09-16T04:36:21.191Z,54.24
2022-09-16T04:37:21.164Z,54.02
2022-09-16T04:38:21.174Z,55.45
2022-09-16T04:39:21.185Z,54.92
2022-09-16T04:40:21.260Z,52.77
2022-09-16T04:41:21.154Z,53.32
2022-09-16T04:42:21.130Z,53.59
2022-09-16T04:43:21.175Z,54.04
2022-09-16T04:44:21.118Z,55.28
2022-09-16T04:45:21.178Z,52.19
2022-09-16T04:46:21.157Z,53.66
2022-09-16T04:47:21.127Z,50.14
2022-09-16T04:48:21.121Z,51.20
2022-09-16T04:49:21.147Z,54.76
2022-09-16T04:50:21.102Z,53.79
2022-09-16T04:51:21.079Z,53.70
2022-09-16T04:52:21.065Z,55.22
2022-09-16T04:53:21.072Z,57.35
2022-09-16T04:54:21.105Z,56.00
2022-09-16T04:55:21.043Z,55.23
2022-09-16T04:56:21.098Z,54.83
2022-09-16T04:57:21.025Z,55.98
2022-09-16T04:58:22.016Z,54.24
2022-09-16T04:59:21.056Z,53.33
2022-09-16T05:00:21.068Z,55.52
2022-09-16T05:01:21.110Z,58.05
2022-09-16T05:02:20.999Z,58.06
2022-09-16T05:03:21.044Z,56.85
2022-09-16T05:04:21.965Z,56.68
2022-09-16T05:05:21.023Z,54.76
2022-09-16T05:06:21.146Z,54.31
2022-09-16T05:07:20.953Z,56.32
2022-09-16T05:08:20.944Z,54.89
2022-09-16T05:09:20.979Z,55.99
2022-09-16T05:10:20.983Z,53.04
2022-09-16T05:11:20.943Z,57.88
2022-09-16T05:12:20.945Z,57.07
2022-09-16T05:13:20.950Z,57.23
2022-09-16T05:14:20.918Z,55.42
2022-09-16T05:15:21.019Z,55.53
2022-09-16T05:16:21.098Z,55.69
2022-09-16T05:17:46.602Z,54.86
2022-09-16T05:18:22.905Z,56.35
2022-09-16T05:19:20.915Z,56.53
2022-09-16T05:20:20.939Z,53.58
2022-09-16T05:21:20.909Z,55.02
2022-09-16T05:22:20.891Z,54.60
2022-09-16T05:23:20.866Z,56.45
2022-09-16T05:24:20.859Z,56.68
2022-09-16T05:25:20.905Z,55.87
2022-09-16T05:26:20.848Z,56.10
2022-09-16T05:27:20.874Z,55.06
2022-09-16T05:28:20.854Z,55.52
2022-09-16T05:29:20.858Z,54.63
2022-09-16T05:30:25.796Z,54.97
2022-09-16T05:31:22.996Z,54.45
2022-09-16T05:32:20.794Z,55.16
2022-09-16T05:33:20.860Z,55.97
2022-09-16T05:34:20.820Z,54.84
2022-09-16T05:35:20.755Z,56.94
2022-09-16T05:36:20.763Z,55.45
2022-09-16T05:37:20.781Z,56.54
2022-09-16T05:38:20.741Z,55.03
2022-09-16T05:39:23.795Z,56.05
2022-09-16T05:40:21.736Z,53.50
2022-09-16T05:41:20.719Z,56.00
2022-09-16T05:42:20.751Z,55.34
2022-09-16T05:43:20.697Z,54.35
2022-09-16T05:44:20.717Z,56.44
2022-09-16T05:45:25.740Z,56.01
2022-09-16T05:46:22.828Z,55.70
2022-09-16T05:47:20.714Z,56.32
2022-09-16T05:48:20.735Z,55.40
2022-09-16T05:49:21.260Z,56.56
2022-09-16T05:50:20.669Z,53.87
2022-09-16T05:51:20.818Z,52.83
2022-09-16T05:52:21.636Z,57.23
2022-09-16T05:53:20.730Z,56.80
2022-09-16T05:54:20.686Z,55.17
2022-09-16T05:55:20.630Z,55.37
2022-09-16T05:56:20.607Z,53.93
2022-09-16T05:57:20.615Z,54.06
2022-09-16T05:58:20.652Z,56.14
2022-09-16T05:59:20.637Z,56.51
2022-09-16T06:00:20.637Z,53.16
2022-09-16T06:01:20.646Z,52.09
2022-09-16T06:02:20.603Z,53.62
2022-09-16T06:03:20.579Z,55.07
2022-09-16T06:04:20.577Z,53.55
2022-09-16T06:05:20.625Z,55.16
2022-09-16T06:06:20.595Z,56.16
2022-09-16T06:07:20.534Z,56.13
2022-09-16T06:08:20.546Z,54.02
2022-09-16T06:09:20.607Z,56.64
2022-09-16T06:10:20.569Z,55.75
2022-09-16T06:11:20.509Z,52.79
2022-09-16T06:12:20.534Z,53.20
2022-09-16T06:13:20.482Z,53.08
2022-09-16T06:14:20.488Z,53.63
2022-09-16T06:15:20.492Z,54.29
2022-09-16T06:16:20.600Z,54.02
2022-09-16T06:17:20.479Z,52.34
2022-09-16T06:18:20.463Z,55.26
2022-09-16T06:19:20.484Z,56.28
2022-09-16T06:20:20.494Z,54.96
2022-09-16T06:21:20.532Z,53.56
2022-09-16T06:22:21.425Z,53.45
2022-09-16T06:23:20.417Z,54.59
2022-09-16T06:24:20.415Z,53.48
2022-09-16T06:25:20.434Z,51.23
2022-09-16T06:26:20.390Z,55.71
2022-09-16T06:27:20.450Z,53.97
2022-09-16T06:28:20.372Z,56.26
2022-09-16T06:29:20.369Z,55.32
2022-09-16T06:30:20.368Z,54.13
2022-09-16T06:31:20.397Z,53.85
2022-09-16T06:32:20.374Z,55.29
2022-09-16T06:33:20.356Z,53.76
2022-09-16T06:34:20.346Z,54.16
2022-09-16T06:35:20.356Z,56.27
2022-09-16T06:36:20.404Z,54.39
2022-09-16T06:37:20.381Z,54.91
2022-09-16T06:38:20.371Z,52.85
2022-09-16T06:39:20.312Z,54.75
2022-09-16T06:40:20.384Z,54.25
2022-09-16T06:41:20.359Z,54.72
2022-09-16T06:42:20.421Z,56.11
2022-09-16T06:43:20.364Z,56.20
2022-09-16T06:44:20.464Z,52.58
2022-09-16T06:45:20.453Z,54.71
2022-09-16T06:46:20.338Z,56.55
2022-09-16T06:47:20.240Z,53.94
2022-09-16T06:48:20.282Z,54.99
2022-09-16T06:49:20.320Z,53.77
2022-09-16T06:50:20.229Z,53.35
2022-09-16T06:51:20.211Z,53.92
2022-09-16T06:52:20.221Z,53.00
2022-09-16T06:53:20.312Z,53.78
2022-09-16T06:54:20.207Z,54.09
2022-09-16T06:55:20.158Z,52.31
2022-09-16T06:56:20.176Z,53.22
2022-09-16T06:57:20.177Z,55.15
2022-09-16T06:58:20.145Z,53.68
2022-09-16T06:59:20.158Z,53.68
2022-09-16T07:00:20.139Z,53.28
2022-09-16T07:01:20.176Z,53.48
2022-09-16T07:02:20.172Z,52.20
2022-09-16T07:03:20.095Z,54.41
2022-09-16T07:04:20.098Z,54.31
2022-09-16T07:05:20.114Z,53.42
2022-09-16T07:06:20.116Z,54.22
2022-09-16T07:07:20.103Z,52.31
2022-09-16T07:08:20.070Z,50.83
2022-09-16T07:09:20.132Z,50.95
2022-09-16T07:10:20.053Z,52.73
2022-09-16T07:11:20.064Z,52.40
2022-09-16T07:12:20.076Z,54.33
2022-09-16T07:13:20.032Z,49.88
2022-09-16T07:14:20.042Z,51.12
2022-09-16T07:15:20.021Z,51.97
2022-09-16T07:16:20.079Z,47.99
2022-09-16T07:17:20.033Z,57.73
2022-09-16T07:18:20.005Z,53.35
2022-09-16T07:19:19.988Z,52.72
2022-09-16T07:20:20.004Z,52.45
2022-09-16T07:21:19.990Z,53.34
2022-09-16T07:22:20.022Z,52.99
2022-09-16T07:23:19.938Z,55.10
2022-09-16T07:24:20.055Z,51.50
2022-09-16T07:25:20.037Z,52.31
2022-09-16T07:26:19.968Z,53.77
2022-09-16T07:27:19.913Z,52.54
2022-09-16T07:28:19.921Z,55.94
2022-09-16T07:29:19.922Z,54.06
2022-09-16T07:30:19.892Z,53.18
2022-09-16T07:31:19.943Z,54.57
2022-09-16T07:32:19.869Z,52.76
2022-09-16T07:33:19.904Z,54.96
2022-09-16T07:34:19.915Z,53.83
2022-09-16T07:35:19.917Z,55.02
2022-09-16T07:36:19.853Z,55.40
2022-09-16T07:37:19.851Z,53.99
2022-09-16T07:38:19.817Z,52.39
2022-09-16T07:39:19.842Z,53.58
2022-09-16T07:40:19.864Z,52.85
2022-09-16T07:41:19.879Z,54.56
2022-09-16T07:42:19.822Z,55.11
2022-09-16T07:43:19.824Z,53.37
2022-09-16T07:44:19.800Z,54.63
2022-09-16T07:45:19.771Z,55.34
2022-09-16T07:46:19.899Z,54.32
2022-09-16T07:47:22.206Z,51.24
2022-09-16T07:48:20.744Z,50.99
2022-09-16T07:49:19.780Z,52.81
2022-09-16T07:50:19.886Z,52.12
2022-09-16T07:51:19.766Z,50.17
2022-09-16T07:52:19.719Z,52.39
2022-09-16T07:53:19.746Z,51.97
2022-09-16T07:54:19.703Z,49.77
2022-09-16T07:55:19.690Z,52.43
2022-09-16T07:56:19.740Z,50.79
2022-09-16T07:57:19.762Z,48.96
2022-09-16T07:58:19.678Z,48.78
2022-09-16T07:59:19.741Z,53.67
2022-09-16T08:00:19.686Z,52.39
2022-09-16T08:01:19.683Z,51.73
2022-09-16T08:02:19.874Z,49.36
2022-09-16T08:03:20.619Z,51.23
2022-09-16T08:04:19.614Z,51.51
2022-09-16T08:05:19.610Z,54.71
2022-09-16T08:06:19.597Z,52.39
2022-09-16T08:07:19.712Z,54.54
2022-09-16T08:08:19.591Z,51.95
2022-09-16T08:09:39.658Z,52.43
2022-09-16T08:10:21.568Z,53.13
2022-09-16T08:11:19.621Z,52.38
2022-09-16T08:12:19.573Z,51.64
2022-09-16T08:13:19.665Z,51.00
2022-09-16T08:14:19.612Z,53.47
2022-09-16T08:16:19.620Z,55.52
2022-09-16T08:17:19.599Z,53.25
2022-09-16T08:18:19.526Z,51.90
2022-09-16T08:19:19.540Z,50.60
2022-09-16T08:20:19.488Z,52.97
2022-09-16T08:21:19.486Z,53.72
2022-09-16T08:22:19.484Z,51.80
2022-09-16T08:23:19.503Z,48.97
2022-09-16T08:24:19.491Z,50.54
2022-09-16T08:25:19.453Z,49.42
2022-09-16T08:26:19.553Z,50.53
2022-09-16T08:27:19.461Z,50.62
2022-09-16T08:28:19.440Z,50.31
2022-09-16T08:29:19.526Z,50.77
2022-09-16T08:30:19.446Z,50.24
2022-09-16T08:31:19.443Z,50.23
2022-09-16T08:32:19.396Z,50.44
2022-09-16T08:33:19.395Z,49.54
2022-09-16T08:34:19.441Z,52.19
2022-09-16T08:35:19.416Z,51.28
2022-09-16T08:36:19.365Z,51.15
2022-09-16T08:37:19.354Z,48.04
2022-09-16T08:38:19.370Z,50.80
2022-09-16T08:39:19.417Z,54.12
2022-09-16T08:40:19.432Z,53.12
2022-09-16T08:41:19.349Z,51.48
2022-09-16T08:42:20.979Z,53.36
2022-09-16T08:43:19.343Z,52.89
2022-09-16T08:44:19.317Z,51.68
2022-09-16T08:45:19.407Z,51.44
2022-09-16T08:46:19.308Z,53.14
2022-09-16T08:47:19.298Z,49.76
2022-09-16T08:48:19.336Z,50.13
2022-09-16T08:49:19.288Z,49.99
2022-09-16T08:50:19.350Z,50.05
2022-09-16T08:51:19.263Z,54.99
2022-09-16T08:52:19.287Z,52.32
2022-09-16T08:53:19.268Z,52.57
2022-09-16T08:54:19.243Z,52.85
2022-09-16T08:55:19.272Z,52.64
2022-09-16T08:56:19.238Z,52.03
2022-09-16T08:57:19.251Z,52.75
2022-09-16T08:58:19.232Z,51.86
2022-09-16T08:59:19.224Z,52.21
2022-09-16T09:00:19.242Z,51.71
2022-09-16T09:01:19.473Z,51.58
2022-09-16T09:02:19.633Z,54.53
2022-09-16T09:03:19.205Z,53.24
2022-09-16T09:04:19.180Z,56.52
2022-09-16T09:05:19.184Z,52.57
2022-09-16T09:06:19.296Z,52.89
2022-09-16T09:07:19.205Z,52.02
2022-09-16T09:08:19.159Z,51.88
2022-09-16T09:09:19.157Z,52.67
2022-09-16T09:10:19.229Z,52.27
2022-09-16T09:11:19.164Z,55.16
2022-09-16T09:12:20.123Z,51.70
2022-09-16T09:13:21.368Z,50.30
2022-09-16T09:14:19.113Z,50.11
2022-09-16T09:15:19.092Z,51.63
2022-09-16T09:16:19.211Z,53.60
2022-09-16T09:17:19.233Z,52.14
2022-09-16T09:18:19.082Z,53.24
2022-09-16T09:19:19.137Z,53.60
2022-09-16T09:20:19.136Z,55.13
2022-09-16T09:21:19.042Z,49.74
2022-09-16T09:22:19.046Z,53.24
2022-09-16T09:23:19.065Z,55.29
2022-09-16T09:24:19.019Z,53.97
2022-09-16T09:25:19.053Z,56.15
2022-09-16T09:26:19.162Z,53.94
2022-09-16T09:27:19.029Z,53.01
2022-09-16T09:28:19.013Z,53.33
2022-09-16T09:29:18.968Z,55.00
2022-09-16T09:30:20.034Z,52.26
2022-09-16T09:31:19.011Z,54.64
2022-09-16T09:32:18.997Z,55.04
2022-09-16T09:33:44.316Z,52.28
2022-09-16T09:34:21.014Z,53.12
2022-09-16T09:35:18.968Z,54.54
2022-09-16T09:36:18.943Z,56.04
2022-09-16T09:37:18.956Z,52.73
2022-09-16T09:38:18.974Z,52.90
2022-09-16T09:39:18.911Z,52.98
2022-09-16T09:40:19.077Z,52.12
2022-09-16T09:41:18.900Z,52.45
2022-09-16T09:42:18.897Z,51.17
2022-09-16T09:43:18.872Z,53.47
2022-09-16T09:44:18.923Z,51.66
2022-09-16T09:45:18.885Z,49.62
2022-09-16T09:46:18.878Z,50.70
2022-09-16T09:47:18.915Z,52.44
2022-09-16T09:48:18.912Z,53.35
2022-09-16T09:49:18.914Z,49.10
2022-09-16T09:50:18.843Z,51.26
2022-09-16T09:51:18.948Z,51.42
2022-09-16T09:52:18.832Z,51.76
2022-09-16T09:53:18.835Z,51.45
2022-09-16T09:54:18.849Z,50.31
2022-09-16T09:55:18.889Z,51.47
2022-09-16T09:56:18.780Z,53.06
2022-09-16T09:57:18.821Z,50.92
2022-09-16T09:58:18.810Z,51.51
2022-09-16T09:59:18.753Z,48.44
2022-09-16T10:00:18.796Z,48.53
2022-09-16T10:01:18.788Z,52.91
2022-09-16T10:02:18.757Z,51.15
2022-09-16T10:03:18.731Z,50.24
2022-09-16T10:04:18.747Z,49.38
2022-09-16T10:05:19.921Z,49.76
2022-09-16T10:06:18.719Z,47.44
2022-09-16T10:07:18.737Z,51.54
2022-09-16T10:08:18.721Z,50.32
2022-09-16T10:09:18.690Z,52.48
2022-09-16T10:10:18.703Z,53.45
2022-09-16T10:11:18.681Z,50.83
2022-09-16T10:12:18.673Z,51.23
2022-09-16T10:13:18.717Z,48.57
2022-09-16T10:14:18.693Z,50.94
2022-09-16T10:15:18.646Z,49.25
2022-09-16T10:16:18.809Z,51.60
2022-09-16T10:17:18.668Z,52.40
2022-09-16T10:18:18.611Z,53.04
2022-09-16T10:19:18.634Z,52.50
2022-09-16T10:20:18.614Z,52.21
2022-09-16T10:21:18.697Z,51.25
2022-09-16T10:22:18.648Z,50.38
2022-09-16T10:23:18.601Z,52.04
2022-09-16T10:24:18.592Z,53.48
2022-09-16T10:25:18.580Z,51.36
2022-09-16T10:26:18.563Z,51.17
2022-09-16T10:27:18.578Z,55.36
2022-09-16T10:28:18.573Z,53.29
2022-09-16T10:29:18.542Z,52.80
2022-09-16T10:30:18.610Z,53.51
2022-09-16T10:31:18.587Z,50.72
2022-09-16T10:32:18.517Z,51.92
2022-09-16T10:33:18.617Z,52.30
2022-09-16T10:34:18.511Z,50.47
2022-09-16T10:35:18.654Z,52.72
2022-09-16T10:36:18.504Z,52.32
2022-09-16T10:37:18.613Z,51.31
2022-09-16T10:38:18.498Z,52.82
2022-09-16T10:39:18.459Z,53.20
2022-09-16T10:40:18.503Z,54.56
2022-09-16T10:41:18.453Z,49.87
2022-09-16T10:42:18.445Z,51.03
2022-09-16T10:43:18.469Z,51.31
2022-09-16T10:44:18.437Z,50.23
2022-09-16T10:45:18.432Z,52.65
2022-09-16T10:46:18.619Z,51.37
2022-09-16T10:47:18.433Z,53.76
2022-09-16T10:48:18.511Z,53.75
2022-09-16T10:49:18.403Z,54.77
2022-09-16T10:50:18.423Z,56.00
2022-09-16T10:51:18.434Z,52.84
2022-09-16T10:52:18.618Z,49.89
2022-09-16T10:53:18.458Z,55.49
2022-09-16T10:54:18.427Z,52.16
2022-09-16T10:55:18.385Z,53.00
2022-09-16T10:56:18.374Z,54.17
2022-09-16T10:57:18.343Z,53.06
2022-09-16T10:58:18.341Z,53.65
2022-09-16T10:59:18.313Z,51.87
2022-09-16T11:00:18.389Z,52.71
2022-09-16T11:01:19.423Z,52.15
2022-09-16T11:02:18.402Z,52.93
2022-09-16T11:03:18.294Z,52.22
2022-09-16T11:04:18.309Z,52.77
2022-09-16T11:05:21.610Z,55.31
2022-09-16T11:06:19.296Z,51.36
2022-09-16T11:07:18.481Z,53.52
2022-09-16T11:08:19.047Z,54.08
2022-09-16T11:09:18.348Z,53.68
2022-09-16T11:10:18.257Z,54.10
2022-09-16T11:11:18.236Z,52.03
2022-09-16T11:12:18.271Z,53.05
2022-09-16T11:13:18.280Z,53.30
2022-09-16T11:14:18.303Z,51.21
2022-09-16T11:15:18.338Z,51.72
2022-09-16T11:16:18.262Z,50.53
2022-09-16T11:17:18.244Z,50.76
2022-09-16T11:18:18.226Z,53.27
2022-09-16T11:19:18.178Z,52.39
2022-09-16T11:20:18.201Z,53.57
2022-09-16T11:21:18.202Z,49.62
2022-09-16T11:22:18.172Z,50.78
2022-09-16T11:23:18.198Z,49.07
2022-09-16T11:24:18.159Z,53.76
2022-09-16T11:25:18.245Z,54.20
2022-09-16T11:26:18.148Z,51.43
2022-09-16T11:27:18.132Z,51.00
2022-09-16T11:28:18.227Z,53.47
2022-09-16T11:29:18.118Z,54.32
2022-09-16T11:30:18.159Z,53.38
2022-09-16T11:31:18.192Z,54.10
2022-09-16T11:32:18.097Z,49.12
2022-09-16T11:33:18.173Z,53.33
2022-09-16T11:34:18.131Z,51.67
2022-09-16T11:35:18.109Z,53.13
2022-09-16T11:36:18.106Z,56.24
2022-09-16T11:37:18.138Z,52.01
2022-09-16T11:38:18.056Z,51.23
2022-09-16T11:39:18.168Z,54.17
2022-09-16T11:40:18.094Z,53.08
2022-09-16T11:41:19.175Z,51.54
2022-09-16T11:42:18.072Z,52.58
2022-09-16T11:43:18.109Z,51.01
2022-09-16T11:44:18.086Z,54.44
2022-09-16T11:45:18.025Z,54.69
2022-09-16T11:46:18.032Z,50.69
2022-09-16T11:47:18.024Z,50.40
2022-09-16T11:48:17.998Z,54.06
2022-09-16T11:49:18.038Z,54.72
2022-09-16T11:50:17.977Z,53.03
2022-09-16T11:51:17.979Z,52.84
2022-09-16T11:52:18.002Z,53.65
2022-09-16T11:53:23.155Z,54.19
2022-09-16T11:54:19.123Z,52.36
2022-09-16T11:55:18.146Z,52.36
2022-09-16T11:56:18.003Z,52.33
2022-09-16T11:57:18.101Z,52.42
2022-09-16T11:58:17.961Z,50.83
2022-09-16T11:59:17.968Z,52.94
2022-09-16T12:00:17.943Z,51.99
2022-09-16T12:02:18.013Z,54.29
2022-09-16T12:03:17.979Z,51.78
2022-09-16T12:04:17.950Z,53.95
2022-09-16T12:05:17.911Z,50.78
2022-09-16T12:06:17.888Z,54.19
2022-09-16T12:07:17.972Z,51.56
2022-09-16T12:08:17.905Z,55.04
2022-09-16T12:09:17.889Z,53.60
2022-09-16T12:10:17.887Z,51.71
2022-09-16T12:11:17.846Z,51.49
2022-09-16T12:12:18.832Z,52.22
2022-09-16T12:13:17.946Z,52.51
2022-09-16T12:14:17.865Z,50.89
2022-09-16T12:15:17.843Z,53.30
2022-09-16T12:16:17.830Z,53.29
2022-09-16T12:17:17.810Z,54.30
2022-09-16T12:18:17.844Z,52.14
2022-09-16T12:19:17.834Z,54.30
2022-09-16T12:20:17.802Z,55.68
2022-09-16T12:21:17.818Z,54.84
2022-09-16T12:22:17.790Z,52.18
2022-09-16T12:23:17.817Z,55.34
2022-09-16T12:24:17.756Z,52.85
2022-09-16T12:25:17.781Z,54.39
2022-09-16T12:26:17.755Z,56.96
2022-09-16T12:27:17.793Z,54.84
2022-09-16T12:28:17.847Z,55.53
2022-09-16T12:29:17.832Z,56.98
2022-09-16T12:30:17.761Z,55.87
2022-09-16T12:31:21.689Z,57.38
2022-09-16T12:32:19.723Z,55.75
2022-09-16T12:33:17.763Z,54.40
2022-09-16T12:34:17.710Z,53.74
2022-09-16T12:35:18.737Z,54.14
2022-09-16T12:36:20.254Z,55.62
2022-09-16T12:37:18.701Z,54.21
2022-09-16T12:38:17.689Z,56.25
2022-09-16T12:39:17.691Z,52.01
2022-09-16T12:40:17.765Z,55.56
2022-09-16T12:41:17.678Z,53.77
2022-09-16T12:42:17.684Z,53.59
2022-09-16T12:43:17.647Z,53.04
2022-09-16T12:44:33.531Z,54.58
2022-09-16T12:45:19.735Z,53.47
2022-09-16T12:46:17.674Z,53.37
2022-09-16T12:47:17.689Z,52.81
2022-09-16T12:48:17.614Z,52.00
2022-09-16T12:49:17.647Z,51.63
2022-09-16T12:50:17.613Z,55.90
2022-09-16T12:51:17.609Z,53.67
2022-09-16T12:52:17.618Z,53.08
2022-09-16T12:53:17.625Z,54.61
2022-09-16T12:54:17.581Z,50.86